This is the latest recevied weather packets stored in our database for station/object KI4KWR-1. If no packets are shown the sender has not sent any weather packets the latest 10 day(s).
| Time | Temp. | Humidity | Pressure | Rain* | Wind** | Luminosity | Snow |
|---|---|---|---|---|---|---|---|
| 1788451203 | 34.44° C | 54% | 989.1 hPa | 0 mm | - | - | - |
| 1788450304 | 33.33° C | 56% | 989 hPa | 0 mm | - | - | - |
| 1788449404 | 33.89° C | 52% | 989 hPa | 0 mm | - | - | - |
| 1788448504 | 32.78° C | 57% | 988.9 hPa | 0 mm | - | - | - |
| 1788447604 | 32.22° C | 60% | 988.8 hPa | 0 mm | - | - | - |
| 1788446704 | 31.11° C | 61% | 988.8 hPa | 0 mm | - | - | - |
| 1788445803 | 30.56° C | 63% | 988.8 hPa | 0 mm | - | - | - |
| 1788444903 | 29.44° C | 66% | 988.9 hPa | 0 mm | - | - | - |
| 1788444003 | 28.89° C | 67% | 988.9 hPa | 0 mm | - | - | - |
| 1788443104 | 27.22° C | 77% | 988.8 hPa | 0 mm | - | - | - |
| 1788442204 | 27.22° C | 76% | 988.9 hPa | 0 mm | - | - | - |
| 1788441304 | 26.67° C | 80% | 988.9 hPa | 0 mm | - | - | - |
| 1788440404 | 25.56° C | 82% | 989 hPa | 0 mm | - | - | - |
| 1788439504 | 25° C | 88% | 988.9 hPa | 0 mm | - | - | - |
| 1788438604 | 23.89° C | 90% | 988.8 hPa | 0 mm | - | - | - |
| 1788437704 | 22.22° C | 91% | 988.8 hPa | 0 mm | - | - | - |
| 1788436803 | 22.22° C | 91% | 988.9 hPa | 0 mm | - | - | - |
| 1788435904 | 21.67° C | 91% | 988.8 hPa | 0 mm | - | - | - |
| 1788435004 | 21.67° C | 90% | 988.5 hPa | 0 mm | - | - | - |
| 1788434104 | 21.67° C | 90% | 988.5 hPa | 0 mm | - | - | - |
| 1788433204 | 21.67° C | 90% | 988.1 hPa | 0 mm | - | - | - |
| 1788432303 | 21.67° C | 90% | 988.1 hPa | 0 mm | - | - | - |
| 1788431403 | 21.67° C | 90% | 988 hPa | 0 mm | - | - | - |
| 1788430503 | 21.67° C | 90% | 988.1 hPa | 0 mm | - | - | - |
| 1788429604 | 22.22° C | 90% | 987.9 hPa | 0 mm | - | - | - |
* Rain latest hour (hover to see other rain measurements)
** Current wind speed in m/s (hover to see current wind gust speed)